Time;durP1;ratioP1;P1;durP2;ratioP2;P2;SDS_P1;SDS_P2;PMS_P1;PMS_P2;Temp;Humidity;BMP_temperature;BMP_pressure;BME280_temperature;BME280_humidity;BME280_pressure;Samples;Min_cycle;Max_cycle;Signal;HPM_P1;HPM_P2
2023/01/02 00:00:05;;;;;;;8.68;2.70;;;14.50;99.90;;;;;;5076608;28;20159;-79
2023/01/02 00:02:36;;;;;;;3.33;2.20;;;14.50;99.90;;;;;;5078474;28;20251;-79
2023/01/02 00:05:02;;;;;;;6.03;2.28;;;14.50;99.90;;;;;;5075730;28;20200;-79
2023/01/02 00:07:28;;;;;;;6.57;2.55;;;14.30;99.90;;;;;;5074988;28;20174;-79
2023/01/02 00:09:53;;;;;;;14.00;2.50;;;14.30;99.90;;;;;;5075793;28;20595;-80
2023/01/02 00:12:19;;;;;;;12.57;2.67;;;14.20;99.90;;;;;;5074681;28;20171;-79
2023/01/02 00:14:44;;;;;;;10.23;3.20;;;14.30;99.90;;;;;;5077668;28;20217;-79
2023/01/02 00:17:10;;;;;;;5.80;2.10;;;14.30;99.90;;;;;;5076211;28;20570;-79
2023/01/02 00:19:35;;;;;;;12.20;3.00;;;14.20;99.90;;;;;;5075957;28;20206;-79
2023/01/02 00:22:01;;;;;;;11.73;2.95;;;14.10;99.90;;;;;;5075975;28;20206;-79
2023/01/02 00:24:26;;;;;;;10.45;2.55;;;14.00;99.90;;;;;;5076551;28;20671;-79
2023/01/02 00:26:54;;;;;;;9.10;3.72;;;13.90;99.90;;;;;;5077565;28;20166;-79
2023/01/02 00:29:19;;;;;;;4.20;2.25;;;14.00;99.90;;;;;;5075988;28;20199;-79
2023/01/02 00:31:45;;;;;;;8.20;3.13;;;13.90;99.90;;;;;;5074894;28;20256;-79
2023/01/02 00:34:11;;;;;;;4.72;2.70;;;13.90;99.90;;;;;;5073689;28;20197;-79
2023/01/02 00:36:37;;;;;;;7.18;2.45;;;13.90;99.90;;;;;;5075456;28;20174;-78
2023/01/02 00:39:02;;;;;;;6.82;3.03;;;13.90;99.90;;;;;;5075239;28;20182;-79
2023/01/02 00:41:28;;;;;;;10.85;2.88;;;13.90;99.90;;;;;;5074281;28;20768;-79
2023/01/02 00:43:53;;;;;;;3.13;2.65;;;14.00;99.90;;;;;;5074535;28;20240;-79
2023/01/02 00:46:19;;;;;;;10.18;3.05;;;13.90;99.90;;;;;;5075304;28;20158;-79
2023/01/02 00:48:45;;;;;;;13.43;3.05;;;13.80;99.90;;;;;;5076348;28;20169;-79
2023/01/02 00:51:10;;;;;;;13.70;3.20;;;13.70;99.90;;;;;;5077055;28;20163;-79
2023/01/02 00:53:36;;;;;;;7.25;2.95;;;13.70;99.90;;;;;;5077716;28;20274;-80
2023/01/02 00:56:02;;;;;;;5.28;2.35;;;13.80;99.90;;;;;;5076631;28;20182;-79
2023/01/02 00:58:27;;;;;;;7.20;2.90;;;13.80;99.90;;;;;;5074943;28;20162;-79
2023/01/02 01:00:53;;;;;;;8.88;2.40;;;13.80;99.90;;;;;;5075791;28;20163;-79
2023/01/02 01:03:19;;;;;;;17.67;2.88;;;13.80;99.90;;;;;;5074995;28;20210;-79
2023/01/02 01:05:44;;;;;;;8.75;3.35;;;13.80;99.90;;;;;;5074510;28;20245;-79
2023/01/02 01:08:10;;;;;;;12.15;3.13;;;13.80;99.90;;;;;;5074738;28;20162;-79
2023/01/02 01:10:36;;;;;;;10.27;2.97;;;13.90;99.90;;;;;;5074441;28;20171;-79
2023/01/02 01:13:02;;;;;;;6.22;2.83;;;13.90;99.90;;;;;;5074981;28;20214;-80
2023/01/02 01:15:28;;;;;;;5.72;2.65;;;13.80;99.90;;;;;;5075409;28;20193;-79
2023/01/02 01:17:54;;;;;;;9.48;2.60;;;13.80;99.90;;;;;;5074790;28;20590;-79
2023/01/02 01:20:19;;;;;;;10.75;2.80;;;13.90;99.90;;;;;;5074467;28;20163;-79
2023/01/02 01:22:45;;;;;;;8.50;2.17;;;13.80;99.90;;;;;;5074673;28;20202;-79
2023/01/02 01:25:11;;;;;;;7.50;2.67;;;13.90;99.90;;;;;;5074707;28;20190;-79
2023/01/02 01:27:36;;;;;;;19.88;3.08;;;13.90;99.90;;;;;;5074686;28;20619;-79
2023/01/02 01:30:03;;;;;;;6.13;2.30;;;13.90;99.90;;;;;;5073262;28;20532;-79
2023/01/02 01:32:29;;;;;;;7.88;2.95;;;13.80;99.90;;;;;;5074624;28;20257;-79
2023/01/02 01:34:54;;;;;;;8.05;2.78;;;13.80;99.90;;;;;;5075665;28;20197;-79
2023/01/02 01:37:20;;;;;;;9.45;2.58;;;13.80;99.90;;;;;;5074883;28;20627;-79
2023/01/02 01:39:47;;;;;;;12.75;3.45;;;13.70;99.90;;;;;;5072905;28;20170;-82
2023/01/02 01:42:13;;;;;;;11.35;2.53;;;13.80;99.90;;;;;;5073906;28;20205;-79
2023/01/02 01:44:54;;;;;;;15.00;3.00;;;13.80;99.90;;;;;;5072638;28;20678;-79
2023/01/02 01:47:41;;;;;;;5.72;2.28;;;13.70;99.90;;;;;;5074016;28;20158;-79
2023/01/02 01:50:11;;;;;;;6.85;2.65;;;13.70;99.90;;;;;;5073861;28;20170;-79
2023/01/02 01:52:42;;;;;;;17.00;2.88;;;13.70;99.90;;;;;;5073915;28;20561;-79
2023/01/02 01:55:14;;;;;;;8.13;3.72;;;13.70;99.90;;;;;;5073657;28;20162;-79
2023/01/02 01:57:49;;;;;;;13.20;3.03;;;13.80;99.90;;;;;;5073834;28;20178;-79
2023/01/02 02:00:15;;;;;;;4.88;2.40;;;13.80;99.90;;;;;;5074046;28;20170;-79
2023/01/02 02:02:44;;;;;;;4.35;2.25;;;13.80;99.90;;;;;;5073849;28;20210;-79
2023/01/02 02:05:12;;;;;;;10.90;3.03;;;13.70;99.90;;;;;;5072412;28;20257;-79
2023/01/02 02:07:42;;;;;;;7.03;2.75;;;13.80;99.90;;;;;;5073992;28;20166;-78
2023/01/02 02:10:09;;;;;;;4.53;2.80;;;13.80;99.90;;;;;;5073278;28;20249;-79
2023/01/02 02:12:35;;;;;;;7.43;3.08;;;13.90;99.90;;;;;;5073575;28;20170;-79
2023/01/02 02:15:00;;;;;;;6.95;2.55;;;13.90;99.90;;;;;;5072449;28;20706;-79
2023/01/02 02:17:42;;;;;;;14.07;3.10;;;13.90;99.90;;;;;;5073760;28;20639;-79
2023/01/02 02:20:19;;;;;;;5.32;2.88;;;13.80;99.90;;;;;;5073485;28;20169;-79
2023/01/02 02:23:11;;;;;;;8.00;2.67;;;13.90;99.90;;;;;;5072356;28;20304;-78
2023/01/02 02:26:00;;;;;;;8.68;3.00;;;13.90;99.90;;;;;;5072138;28;20205;-79
2023/01/02 02:28:37;;;;;;;3.95;2.63;;;13.80;99.90;;;;;;5072012;28;20187;-78
2023/01/02 02:31:16;;;;;;;10.43;2.75;;;13.70;99.90;;;;;;5073178;28;20189;-79
2023/01/02 02:33:50;;;;;;;2.65;2.45;;;13.80;99.90;;;;;;5072949;28;20204;-79
2023/01/02 02:36:34;;;;;;;9.80;2.75;;;13.80;99.90;;;;;;5072022;28;20635;-79
2023/01/02 02:39:08;;;;;;;6.30;2.55;;;13.70;99.90;;;;;;5073175;28;20599;-79
2023/01/02 02:41:45;;;;;;;5.18;2.60;;;13.70;99.90;;;;;;5071613;28;20166;-79
2023/01/02 02:44:55;;;;;;;5.25;2.58;;;13.70;99.90;;;;;;5072966;28;20874;-79
2023/01/02 02:47:43;;;;;;;8.35;2.97;;;13.90;99.90;;;;;;5071878;28;20174;-79
2023/01/02 02:50:13;;;;;;;3.60;2.63;;;13.90;99.90;;;;;;5073009;28;20623;-79
2023/01/02 02:52:46;;;;;;;7.38;2.53;;;13.90;99.90;;;;;;5073411;28;20193;-79
2023/01/02 02:55:24;;;;;;;4.82;2.63;;;13.70;99.90;;;;;;5071440;28;20178;-79
2023/01/02 02:58:00;;;;;;;6.63;3.08;;;13.70;99.90;;;;;;5071882;28;20199;-79
2023/01/02 03:00:26;;;;;;;6.28;2.58;;;13.70;99.90;;;;;;5071628;28;20618;-79
2023/01/02 03:02:51;;;;;;;8.48;2.80;;;13.90;99.90;;;;;;5072855;28;20232;-79
2023/01/02 03:05:39;;;;;;;6.70;2.60;;;13.90;99.90;;;;;;5071730;28;20162;-79
2023/01/02 03:08:27;;;;;;;10.65;3.08;;;13.90;99.90;;;;;;5072801;28;20211;-79
2023/01/02 03:10:58;;;;;;;3.88;2.17;;;13.90;99.90;;;;;;5072230;28;20166;-84
2023/01/02 03:13:24;;;;;;;10.35;2.83;;;14.00;99.90;;;;;;5072291;28;20643;-79
2023/01/02 03:16:11;;;;;;;5.65;2.65;;;14.00;99.90;;;;;;5071643;28;20178;-78
2023/01/02 03:18:53;;;;;;;4.95;2.65;;;13.90;99.90;;;;;;5072709;28;20167;-79
2023/01/02 03:21:34;;;;;;;5.55;2.90;;;13.80;99.90;;;;;;5071469;28;20178;-78
2023/01/02 03:24:04;;;;;;;12.90;2.58;;;13.80;99.90;;;;;;5072543;28;20206;-78
2023/01/02 03:26:33;;;;;;;8.15;2.80;;;13.80;99.90;;;;;;5072402;28;20180;-79
2023/01/02 03:29:05;;;;;;;10.02;2.92;;;13.80;99.90;;;;;;5072802;28;20232;-81
2023/01/02 03:31:36;;;;;;;8.30;2.78;;;13.60;99.90;;;;;;5072551;28;20162;-79
2023/01/02 03:34:12;;;;;;;4.65;2.33;;;13.70;99.90;;;;;;5072180;28;20545;-78
2023/01/02 03:36:41;;;;;;;5.38;1.98;;;13.80;99.90;;;;;;5075485;28;20170;-79
2023/01/02 03:39:15;;;;;;;3.22;2.47;;;13.80;99.90;;;;;;5076318;28;20162;-78
2023/01/02 03:41:51;;;;;;;5.22;2.40;;;13.80;99.90;;;;;;5076048;28;20170;-79
2023/01/02 03:44:21;;;;;;;6.78;2.40;;;13.80;99.90;;;;;;5076285;28;20198;-79
2023/01/02 03:47:11;;;;;;;7.50;2.20;;;13.90;99.90;;;;;;5076502;28;20526;-79
2023/01/02 03:49:44;;;;;;;3.75;2.42;;;14.00;99.90;;;;;;5075757;28;20187;-79
2023/01/02 03:52:09;;;;;;;5.55;2.40;;;13.80;99.90;;;;;;5076276;28;20169;-78
2023/01/02 03:54:36;;;;;;;5.22;1.75;;;13.70;99.90;;;;;;5075762;28;20261;-78
2023/01/02 03:57:12;;;;;;;4.20;1.77;;;13.70;99.90;;;;;;5074694;28;20703;-79
2023/01/02 04:00:04;;;;;;;2.92;1.58;;;13.70;99.90;;;;;;5076459;28;20166;-78
2023/01/02 04:02:58;;;;;;;5.88;1.60;;;13.60;99.90;;;;;;5076217;28;20201;-79
2023/01/02 04:05:55;;;;;;;6.47;2.00;;;13.60;99.90;;;;;;5075608;28;20190;-78
2023/01/02 04:08:44;;;;;;;5.20;1.80;;;13.70;99.90;;;;;;5075631;28;20231;-78
2023/01/02 04:11:12;;;;;;;8.50;1.85;;;13.70;99.90;;;;;;5074455;28;20690;-79
2023/01/02 04:14:03;;;;;;;1.90;1.52;;;13.70;99.90;;;;;;5075393;28;20339;-78
2023/01/02 04:16:33;;;;;;;3.83;1.95;;;13.70;99.90;;;;;;5075692;28;20194;-80
2023/01/02 04:19:06;;;;;;;10.60;2.30;;;13.70;99.90;;;;;;5075965;28;20185;-79
2023/01/02 04:21:37;;;;;;;5.95;1.80;;;13.70;99.90;;;;;;5075741;28;20155;-79
2023/01/02 04:24:26;;;;;;;5.88;1.88;;;13.70;99.90;;;;;;5075880;28;20778;-79
2023/01/02 04:27:22;;;;;;;3.42;1.70;;;13.60;99.90;;;;;;5075703;28;20167;-79
2023/01/02 04:29:47;;;;;;;4.38;1.92;;;13.70;99.90;;;;;;5075777;28;20158;-79
2023/01/02 04:32:15;;;;;;;3.95;1.50;;;13.80;99.90;;;;;;5075621;28;20227;-79
2023/01/02 04:34:42;;;;;;;4.45;1.95;;;13.70;99.90;;;;;;5074959;28;20182;-79
2023/01/02 04:37:08;;;;;;;3.05;1.80;;;13.70;99.90;;;;;;5075309;28;20249;-79
2023/01/02 04:39:35;;;;;;;5.40;1.42;;;13.50;99.90;;;;;;5074910;28;20249;-81
2023/01/02 04:42:01;;;;;;;9.07;1.77;;;13.50;99.90;;;;;;5075135;28;20562;-79
2023/01/02 04:44:26;;;;;;;5.13;2.25;;;13.50;99.90;;;;;;5075307;28;20202;-78
2023/01/02 04:46:52;;;;;;;3.13;1.60;;;13.40;99.90;;;;;;5074639;28;20163;-79
2023/01/02 04:49:17;;;;;;;4.32;1.67;;;13.40;99.90;;;;;;5075244;28;20170;-80
2023/01/02 04:51:43;;;;;;;5.25;1.65;;;13.40;99.90;;;;;;5075089;28;20174;-79
2023/01/02 04:54:11;;;;;;;4.28;1.73;;;13.50;99.90;;;;;;5075160;28;20193;-79
2023/01/02 04:56:37;;;;;;;3.60;1.67;;;13.60;99.90;;;;;;5074901;28;20289;-79
2023/01/02 04:59:03;;;;;;;5.00;1.63;;;13.60;99.90;;;;;;5075120;28;20205;-79
2023/01/02 05:01:28;;;;;;;6.53;1.70;;;13.60;99.90;;;;;;5075155;28;20201;-79
2023/01/02 05:03:54;;;;;;;1.58;1.25;;;13.50;99.90;;;;;;5074597;28;20609;-78
2023/01/02 05:06:19;;;;;;;3.58;1.45;;;13.50;99.90;;;;;;5074976;28;20245;-79
2023/01/02 05:08:45;;;;;;;3.28;1.35;;;13.40;99.90;;;;;;5074315;28;20518;-78
2023/01/02 05:11:12;;;;;;;5.90;1.85;;;13.40;99.90;;;;;;5074432;28;20193;-79
2023/01/02 05:13:38;;;;;;;1.42;1.15;;;13.30;99.90;;;;;;5074634;28;20186;-79
2023/01/02 05:16:04;;;;;;;3.85;1.63;;;13.40;99.90;;;;;;5074560;28;20581;-79
2023/01/02 05:18:30;;;;;;;5.95;1.77;;;13.40;99.90;;;;;;5073356;28;20216;-79
2023/01/02 05:21:00;;;;;;;2.05;1.40;;;13.40;99.90;;;;;;5074383;28;20665;-79
2023/01/02 05:26:11;;;;;;;5.35;1.77;;;13.20;99.90;;;;;;5074946;28;20174;-79
2023/01/02 05:28:36;;;;;;;3.63;1.65;;;13.10;99.90;;;;;;5074598;28;20224;-78
2023/01/02 05:31:02;;;;;;;2.55;1.50;;;13.30;99.90;;;;;;5073167;28;20634;-79
2023/01/02 05:33:28;;;;;;;2.05;1.35;;;13.40;99.90;;;;;;5074233;28;20186;-79
2023/01/02 05:35:53;;;;;;;4.90;1.50;;;13.40;99.90;;;;;;5072862;28;20170;-79
2023/01/02 05:38:19;;;;;;;5.20;1.60;;;13.30;99.90;;;;;;5074065;28;20258;-79
2023/01/02 05:40:45;;;;;;;4.22;1.38;;;13.30;99.90;;;;;;5074126;28;20249;-79
2023/01/02 05:43:10;;;;;;;2.50;1.60;;;13.30;99.90;;;;;;5073999;28;20214;-79
2023/01/02 05:45:36;;;;;;;4.38;1.55;;;13.30;99.90;;;;;;5073871;28;20190;-79
2023/01/02 05:48:01;;;;;;;2.63;1.95;;;13.10;99.90;;;;;;5072456;28;20166;-79
2023/01/02 05:50:27;;;;;;;3.30;1.95;;;12.90;99.90;;;;;;5074146;28;20170;-79
2023/01/02 05:52:54;;;;;;;3.22;2.63;;;12.80;99.90;;;;;;5073842;28;20681;-79
2023/01/02 05:55:20;;;;;;;3.00;2.67;;;12.50;99.90;;;;;;5074386;28;20174;-79
2023/01/02 05:57:46;;;;;;;2.92;2.63;;;12.40;99.90;;;;;;5073314;28;20166;-79
2023/01/02 06:00:12;;;;;;;2.72;2.53;;;12.30;99.90;;;;;;5073118;28;20288;-79
2023/01/02 06:02:37;;;;;;;4.05;2.58;;;12.30;99.90;;;;;;5073377;28;20230;-79
2023/01/02 06:05:04;;;;;;;2.25;1.92;;;12.30;99.90;;;;;;5073888;28;20205;-78
2023/01/02 06:07:29;;;;;;;2.95;1.85;;;12.30;99.90;;;;;;5074194;28;20283;-79
2023/01/02 06:09:55;;;;;;;2.35;2.15;;;12.20;99.90;;;;;;5073707;28;20712;-78
2023/01/02 06:12:20;;;;;;;1.88;1.73;;;12.20;99.90;;;;;;5073812;28;20174;-79
2023/01/02 06:14:46;;;;;;;2.13;1.65;;;12.10;99.90;;;;;;5074130;28;20272;-78
2023/01/02 06:17:11;;;;;;;2.08;1.98;;;12.00;99.90;;;;;;5073641;28;20170;-79
2023/01/02 06:19:37;;;;;;;5.20;2.03;;;12.00;99.90;;;;;;5072200;28;20196;-79
2023/01/02 06:22:03;;;;;;;2.20;2.03;;;11.90;99.90;;;;;;5073371;28;20158;-78
2023/01/02 06:24:28;;;;;;;2.80;2.60;;;11.80;99.90;;;;;;5071914;28;20194;-79
2023/01/02 06:26:54;;;;;;;5.53;2.58;;;11.70;99.90;;;;;;5073256;28;20170;-79
2023/01/02 06:29:20;;;;;;;2.80;2.50;;;11.70;99.90;;;;;;5073401;28;20190;-79
2023/01/02 06:31:46;;;;;;;2.38;2.17;;;11.90;99.90;;;;;;5072048;28;20201;-79
2023/01/02 06:34:13;;;;;;;3.70;2.95;;;11.90;99.90;;;;;;5071754;28;20582;-79
2023/01/02 06:36:38;;;;;;;3.63;3.33;;;11.90;99.90;;;;;;5071699;28;20181;-79
2023/01/02 06:39:04;;;;;;;3.20;2.90;;;11.90;99.90;;;;;;5072924;28;20177;-79
2023/01/02 06:41:30;;;;;;;3.05;2.83;;;11.90;99.90;;;;;;5073279;28;20170;-79
2023/01/02 06:43:56;;;;;;;3.50;3.15;;;12.00;99.90;;;;;;5073142;28;20229;-79
2023/01/02 06:46:23;;;;;;;3.92;3.55;;;12.00;99.90;;;;;;5073441;28;20174;-79
2023/01/02 06:48:49;;;;;;;3.42;3.08;;;12.10;99.90;;;;;;5073404;28;20167;-80
2023/01/02 06:51:17;;;;;;;5.10;3.83;;;12.00;99.90;;;;;;5071891;28;20177;-79
2023/01/02 06:53:44;;;;;;;5.25;4.28;;;12.10;99.90;;;;;;5073032;28;20194;-79
2023/01/02 06:56:10;;;;;;;8.50;4.47;;;11.90;99.90;;;;;;5071694;28;20293;-79
2023/01/02 06:58:37;;;;;;;5.82;5.13;;;11.80;99.90;;;;;;5073159;28;21305;-79
2023/01/02 07:01:12;;;;;;;4.97;4.50;;;11.90;99.90;;;;;;5073003;28;20178;-79
2023/01/02 07:03:37;;;;;;;7.20;5.25;;;12.00;99.90;;;;;;5072850;28;20686;-79
2023/01/02 07:06:05;;;;;;;5.18;4.78;;;12.00;99.90;;;;;;5072282;28;20162;-79
2023/01/02 07:08:32;;;;;;;5.13;4.63;;;12.10;99.90;;;;;;5073343;28;20220;-79
2023/01/02 07:11:21;;;;;;;5.57;5.00;;;12.20;99.90;;;;;;5075417;28;20166;-79
2023/01/02 07:13:48;;;;;;;7.70;5.70;;;12.20;99.90;;;;;;5078239;28;20723;-79
2023/01/02 07:16:16;;;;;;;5.38;4.88;;;12.30;99.90;;;;;;5076309;28;20230;-80
2023/01/02 07:18:42;;;;;;;5.47;4.97;;;12.40;99.90;;;;;;5076045;28;20185;-79
2023/01/02 07:21:09;;;;;;;5.80;5.07;;;12.40;99.90;;;;;;5077257;28;20585;-80
2023/01/02 07:23:35;;;;;;;6.10;5.50;;;12.30;99.90;;;;;;5076433;28;20221;-79
2023/01/02 07:26:03;;;;;;;5.07;4.57;;;12.30;99.90;;;;;;5077336;28;20257;-80
2023/01/02 07:28:29;;;;;;;5.90;5.30;;;12.30;99.90;;;;;;5076973;28;20542;-79
2023/01/02 07:30:57;;;;;;;7.65;4.72;;;12.30;99.90;;;;;;5077225;28;20627;-79
2023/01/02 07:33:23;;;;;;;5.47;4.97;;;12.10;99.90;;;;;;5076928;28;20190;-79
2023/01/02 07:35:49;;;;;;;6.45;5.80;;;12.10;99.90;;;;;;5077551;28;20150;-79
2023/01/02 07:38:14;;;;;;;5.90;5.38;;;12.00;99.90;;;;;;5076674;28;20171;-79
2023/01/02 07:40:40;;;;;;;9.43;8.10;;;12.00;99.90;;;;;;5076402;28;20162;-79
2023/01/02 07:43:06;;;;;;;7.63;6.10;;;11.90;99.90;;;;;;5076119;28;20218;-79
2023/01/02 07:45:33;;;;;;;6.32;5.55;;;11.90;99.90;;;;;;5076536;28;20576;-85
2023/01/02 07:47:59;;;;;;;12.13;9.82;;;11.90;99.90;;;;;;5075021;28;20579;-79
2023/01/02 07:50:25;;;;;;;6.65;6.00;;;11.80;99.90;;;;;;5076051;28;20166;-79
2023/01/02 07:52:50;;;;;;;6.90;5.85;;;11.70;99.90;;;;;;5076141;28;20190;-79
2023/01/02 07:55:16;;;;;;;7.15;6.45;;;11.60;99.90;;;;;;5075850;28;20229;-79
2023/01/02 07:57:44;;;;;;;5.50;5.00;;;11.60;99.90;;;;;;5076511;28;20163;-79
2023/01/02 08:00:10;;;;;;;6.70;6.05;;;11.60;99.90;;;;;;5077121;28;20175;-79
2023/01/02 08:02:36;;;;;;;6.15;5.55;;;11.80;99.90;;;;;;5074320;28;20202;-78
2023/01/02 08:05:02;;;;;;;6.93;6.32;;;11.80;99.90;;;;;;5075043;28;20259;-78
2023/01/02 08:07:27;;;;;;;9.52;8.52;;;11.80;99.90;;;;;;5074999;28;20174;-80
2023/01/02 08:09:53;;;;;;;5.93;5.40;;;11.90;99.90;;;;;;5074607;28;20169;-79
2023/01/02 08:12:18;;;;;;;6.68;6.07;;;11.90;99.90;;;;;;5075149;28;20249;-79
2023/01/02 08:14:44;;;;;;;14.13;8.30;;;11.70;99.90;;;;;;5075933;28;20802;-78
2023/01/02 08:17:09;;;;;;;9.70;8.77;;;11.80;99.90;;;;;;5075701;28;20162;-79
2023/01/02 08:19:35;;;;;;;5.15;4.65;;;11.90;99.90;;;;;;5075866;28;20170;-78
2023/01/02 08:22:00;;;;;;;6.75;6.15;;;12.00;99.90;;;;;;5075188;28;20159;-79
2023/01/02 08:24:26;;;;;;;7.80;7.07;;;12.00;99.90;;;;;;5075376;28;20628;-78
2023/01/02 08:26:51;;;;;;;7.75;5.68;;;12.00;99.90;;;;;;5075628;28;20167;-79
2023/01/02 08:29:17;;;;;;;5.30;4.78;;;12.00;99.90;;;;;;5075519;28;20200;-78
2023/01/02 08:31:43;;;;;;;6.15;5.55;;;12.20;99.90;;;;;;5075658;28;20499;-78
2023/01/02 08:34:13;;;;;;;5.57;5.07;;;12.30;99.90;;;;;;5075393;28;20194;-79
2023/01/02 08:36:39;;;;;;;4.88;4.38;;;12.30;99.90;;;;;;5076442;28;20166;-79
2023/01/02 08:39:04;;;;;;;9.02;5.13;;;12.40;99.90;;;;;;5074088;28;20825;-79
2023/01/02 08:41:38;;;;;;;4.40;3.83;;;12.40;99.90;;;;;;5075967;28;20657;-81
2023/01/02 08:44:05;;;;;;;6.05;4.38;;;12.50;99.90;;;;;;5076759;28;20217;-81
2023/01/02 08:46:31;;;;;;;4.28;3.78;;;12.50;99.90;;;;;;5077313;28;20198;-78
2023/01/02 08:48:58;;;;;;;3.83;3.30;;;12.60;99.90;;;;;;5075352;28;20761;-92
2023/01/02 08:51:24;;;;;;;3.90;3.60;;;12.60;99.90;;;;;;5075014;28;20281;-79
2023/01/02 08:53:49;;;;;;;3.15;2.95;;;12.50;99.90;;;;;;5073845;28;20194;-78
2023/01/02 08:56:21;;;;;;;3.40;3.08;;;12.40;99.90;;;;;;5072317;28;20211;-78
2023/01/02 08:58:55;;;;;;;2.67;2.47;;;12.40;99.90;;;;;;5071736;28;20169;-79
2023/01/02 09:01:22;;;;;;;5.25;2.88;;;12.40;99.90;;;;;;5073273;28;20224;-79
2023/01/02 09:03:49;;;;;;;2.47;2.08;;;12.60;99.90;;;;;;5074172;28;20271;-85
2023/01/02 09:06:15;;;;;;;4.57;2.35;;;12.40;99.90;;;;;;5074323;28;20180;-90
2023/01/02 09:08:40;;;;;;;8.35;2.58;;;12.40;99.90;;;;;;5075149;28;20257;-81
2023/01/02 09:11:14;;;;;;;2.50;1.90;;;12.30;99.90;;;;;;5074461;28;20169;-79
2023/01/02 09:13:41;;;;;;;2.40;2.20;;;12.40;99.90;;;;;;5073511;28;20209;-80
2023/01/02 09:16:07;;;;;;;2.60;2.40;;;12.50;99.90;;;;;;5074612;28;20250;-89
2023/01/02 09:18:33;;;;;;;5.22;2.10;;;12.60;99.90;;;;;;5075886;28;20180;-80
2023/01/02 09:20:59;;;;;;;7.22;2.33;;;12.40;99.90;;;;;;5078269;28;21032;-80
2023/01/02 09:23:24;;;;;;;3.92;2.10;;;12.20;99.90;;;;;;5075868;28;20206;-78
2023/01/02 09:25:50;;;;;;;2.50;1.80;;;12.20;99.90;;;;;;5074286;28;20163;-79
2023/01/02 09:28:16;;;;;;;2.10;1.90;;;12.30;99.90;;;;;;5074497;28;20535;-92
2023/01/02 09:30:42;;;;;;;2.25;1.98;;;12.40;99.90;;;;;;5075019;28;20170;-87
2023/01/02 09:33:07;;;;;;;2.13;1.98;;;12.30;99.90;;;;;;5075279;28;20202;-92
2023/01/02 09:35:34;;;;;;;2.33;2.10;;;12.40;99.90;;;;;;5079480;28;20527;-79
2023/01/02 09:38:00;;;;;;;2.78;1.88;;;12.40;99.90;;;;;;5083069;28;20216;-79
2023/01/02 09:40:27;;;;;;;2.30;2.10;;;12.50;99.90;;;;;;5080119;28;20171;-79
2023/01/02 09:42:54;;;;;;;3.40;1.88;;;12.50;99.90;;;;;;5077213;28;20218;-78
2023/01/02 09:45:20;;;;;;;9.32;2.28;;;12.40;99.90;;;;;;5073976;28;20166;-78
2023/01/02 09:47:46;;;;;;;2.10;1.85;;;12.40;99.90;;;;;;5074048;28;20178;-91
2023/01/02 09:50:25;;;;;;;1.88;1.70;;;12.50;99.90;;;;;;5058912;28;20170;-79
2023/01/02 09:52:57;;;;;;;6.07;2.20;;;12.40;99.90;;;;;;5074582;28;20229;-79
2023/01/02 09:55:54;;;;;;;4.20;2.75;;;12.40;99.90;;;;;;5073578;28;20177;-78
2023/01/02 09:58:38;;;;;;;2.83;2.50;;;12.50;99.90;;;;;;5073729;28;20174;-78
2023/01/02 10:01:12;;;;;;;2.85;2.65;;;12.90;99.90;;;;;;5053902;28;20581;-78
2023/01/02 10:03:46;;;;;;;3.05;2.72;;;13.00;99.90;;;;;;5068224;28;20211;-78
2023/01/02 10:06:26;;;;;;;3.67;3.05;;;12.90;99.90;;;;;;5074175;28;20624;-78
2023/01/02 10:09:10;;;;;;;3.08;2.65;;;12.90;99.90;;;;;;5074689;28;20219;-78
2023/01/02 10:12:05;;;;;;;2.90;2.40;;;12.80;99.90;;;;;;5072935;28;20182;-78
2023/01/02 10:14:54;;;;;;;2.22;1.80;;;12.70;99.90;;;;;;5073506;28;20218;-79
2023/01/02 10:17:21;;;;;;;3.20;2.42;;;12.80;99.90;;;;;;5072846;28;20305;-77
2023/01/02 10:19:53;;;;;;;2.65;2.45;;;12.70;99.90;;;;;;5072449;28;20163;-78
2023/01/02 10:22:25;;;;;;;2.95;2.70;;;12.70;99.90;;;;;;5071896;28;20225;-87
2023/01/02 10:25:01;;;;;;;4.18;2.45;;;12.70;99.90;;;;;;5074861;28;20254;-78
2023/01/02 10:27:35;;;;;;;4.22;2.47;;;12.70;99.90;;;;;;5073035;28;20190;-78
2023/01/02 10:30:01;;;;;;;3.42;2.53;;;12.80;99.90;;;;;;5076517;28;20165;-78
2023/01/02 10:32:28;;;;;;;2.55;2.35;;;12.80;99.90;;;;;;5074185;28;20167;-78
2023/01/02 10:35:02;;;;;;;4.70;2.42;;;12.70;99.90;;;;;;5073426;28;20154;-78
2023/01/02 10:37:27;;;;;;;7.97;2.63;;;12.50;99.90;;;;;;5072735;28;20182;-77
2023/01/02 10:39:53;;;;;;;2.97;2.55;;;12.70;99.90;;;;;;5074093;28;20573;-78
2023/01/02 10:42:21;;;;;;;4.00;2.30;;;12.70;99.90;;;;;;5074300;28;20615;-79
2023/01/02 10:44:47;;;;;;;2.45;2.17;;;12.70;99.90;;;;;;5073354;28;20586;-78
2023/01/02 10:47:34;;;;;;;2.70;2.50;;;12.80;99.90;;;;;;5072412;28;20794;-78
2023/01/02 10:50:05;;;;;;;2.65;2.45;;;12.90;99.90;;;;;;5074238;28;20196;-79
2023/01/02 10:52:39;;;;;;;4.72;2.50;;;12.80;99.90;;;;;;5072942;28;20221;-78
2023/01/02 10:55:05;;;;;;;4.05;3.22;;;12.90;99.90;;;;;;5072488;28;20546;-78
2023/01/02 10:57:42;;;;;;;3.58;3.28;;;13.00;99.90;;;;;;5075109;28;20170;-78
2023/01/02 11:00:25;;;;;;;3.05;2.60;;;13.10;99.90;;;;;;5075644;28;20280;-78
2023/01/02 11:03:04;;;;;;;6.53;2.15;;;13.00;99.90;;;;;;5077276;28;20205;-78
2023/01/02 11:05:30;;;;;;;3.20;1.73;;;13.00;99.90;;;;;;5074298;28;20193;-77
2023/01/02 11:07:57;;;;;;;3.88;2.95;;;12.80;99.90;;;;;;5075497;28;20166;-78
2023/01/02 11:10:46;;;;;;;3.10;2.83;;;12.80;99.90;;;;;;5075847;28;20241;-82
2023/01/02 11:13:15;;;;;;;3.03;2.10;;;12.90;99.90;;;;;;5072650;28;20281;-79
2023/01/02 11:15:48;;;;;;;3.17;2.88;;;12.90;99.90;;;;;;5074162;28;20194;-78
2023/01/02 11:18:21;;;;;;;2.58;2.38;;;12.70;99.90;;;;;;5068577;28;20243;-79
2023/01/02 11:20:52;;;;;;;2.58;2.17;;;12.50;99.90;;;;;;5053561;28;20171;-79
2023/01/02 11:23:23;;;;;;;3.33;2.13;;;12.50;99.90;;;;;;5053790;28;20285;-78
2023/01/02 11:25:50;;;;;;;3.35;3.05;;;12.50;99.90;;;;;;5053665;28;20166;-79
2023/01/02 11:28:33;;;;;;;4.30;2.97;;;12.50;99.90;;;;;;5055465;28;20290;-78
2023/01/02 11:31:04;;;;;;;4.68;2.92;;;12.40;99.90;;;;;;5073795;28;20635;-78
2023/01/02 11:33:32;;;;;;;2.85;2.65;;;12.40;99.90;;;;;;5075328;28;20190;-91
2023/01/02 11:36:09;;;;;;;4.22;2.90;;;12.30;99.90;;;;;;5074959;28;20167;-89
2023/01/02 11:38:57;;;;;;;3.28;2.78;;;12.50;99.90;;;;;;5075928;28;20249;-92
2023/01/02 11:44:35;;;;;;;4.72;3.88;;;12.40;99.90;;;;;;5069859;28;20276;-91
2023/01/02 11:47:03;;;;;;;4.07;3.67;;;12.40;99.90;;;;;;5054497;28;20162;-81
2023/01/02 11:49:44;;;;;;;11.48;6.55;;;12.50;99.90;;;;;;5054868;28;20167;-79
2023/01/02 11:52:22;;;;;;;11.68;6.07;;;12.70;99.90;;;;;;5054336;28;20163;-78
2023/01/02 11:55:20;;;;;;;5.90;4.20;;;12.80;99.90;;;;;;5057134;28;20178;-78
2023/01/02 11:57:58;;;;;;;4.57;4.18;;;12.80;99.90;;;;;;5057466;28;20241;-79
2023/01/02 12:00:30;;;;;;;13.20;10.13;;;12.90;99.90;;;;;;5055909;28;20171;-78
2023/01/02 12:03:03;;;;;;;6.53;5.82;;;12.70;99.90;;;;;;5055913;28;20214;-78
2023/01/02 12:05:53;;;;;;;4.88;4.15;;;12.60;99.90;;;;;;5057003;28;20163;-78
2023/01/02 12:08:21;;;;;;;5.70;4.32;;;12.60;99.90;;;;;;5057460;28;20293;-78
2023/01/02 12:11:02;;;;;;;11.07;7.00;;;12.70;99.90;;;;;;5056942;28;20175;-79
2023/01/02 12:13:55;;;;;;;6.13;4.43;;;12.80;99.90;;;;;;5061115;28;20232;-79
2023/01/02 12:16:30;;;;;;;6.35;3.78;;;12.80;99.90;;;;;;5058376;28;20171;-79
2023/01/02 12:19:10;;;;;;;5.80;5.05;;;12.80;99.90;;;;;;5059188;28;20174;-79
2023/01/02 12:21:55;;;;;;;6.35;5.28;;;12.80;99.90;;;;;;5056450;28;20179;-79
2023/01/02 12:24:37;;;;;;;9.95;6.35;;;13.00;99.90;;;;;;5058651;28;20210;-79
2023/01/02 12:27:41;;;;;;;10.75;4.97;;;13.00;99.90;;;;;;5055818;28;20550;-78
2023/01/02 12:30:07;;;;;;;6.18;4.82;;;12.70;99.90;;;;;;5057140;28;20187;-79
2023/01/02 12:32:44;;;;;;;5.55;4.18;;;12.60;99.90;;;;;;5056454;28;20178;-79
2023/01/02 12:35:44;;;;;;;4.22;3.78;;;12.70;99.90;;;;;;5056314;28;20538;-79
2023/01/02 12:38:16;;;;;;;6.80;4.85;;;12.90;99.90;;;;;;5057373;28;20167;-79
2023/01/02 12:41:05;;;;;;;4.40;3.10;;;12.90;99.90;;;;;;5056868;28;20188;-82
2023/01/02 12:43:50;;;;;;;5.68;3.58;;;12.80;99.90;;;;;;5055895;28;20243;-79
2023/01/02 12:46:31;;;;;;;4.30;3.70;;;12.80;99.90;;;;;;5056223;28;20167;-79
2023/01/02 12:49:15;;;;;;;3.83;2.80;;;12.90;99.90;;;;;;5058684;28;20200;-79
2023/01/02 12:51:59;;;;;;;2.85;2.53;;;13.20;99.90;;;;;;5056842;28;20167;-79
2023/01/02 12:54:49;;;;;;;3.15;2.33;;;13.20;99.90;;;;;;5056335;28;20195;-79
2023/01/02 12:57:45;;;;;;;2.88;2.65;;;13.00;99.90;;;;;;5056233;28;20194;-80
2023/01/02 13:00:43;;;;;;;2.83;2.45;;;12.90;99.90;;;;;;5057648;28;20167;-79
2023/01/02 13:03:27;;;;;;;4.13;3.55;;;12.90;99.90;;;;;;5057291;28;20679;-79
2023/01/02 13:06:15;;;;;;;5.45;4.95;;;12.90;99.90;;;;;;5056607;28;20163;-79
2023/01/02 13:08:50;;;;;;;5.10;4.03;;;12.70;99.90;;;;;;5056286;28;20203;-79
2023/01/02 13:11:24;;;;;;;6.18;5.10;;;12.60;99.90;;;;;;5056430;28;20175;-79